Time;durP1;ratioP1;P1;durP2;ratioP2;P2;SDS_P1;SDS_P2;PMS_P1;PMS_P2;Temp;Humidity;BMP_temperature;BMP_pressure;BME280_temperature;BME280_humidity;BME280_pressure;Samples;Min_cycle;Max_cycle;Signal;HPM_P1;HPM_P2
2022/07/04 00:00:21;;;;;;;;;;;19.00;88.30;;;;;;4954013;29;19910;-69
2022/07/04 00:02:47;;;;;;;;;;;19.00;88.50;;;;;;4954309;28;19918;-69
2022/07/04 00:05:14;;;;;;;;;;;18.90;88.60;;;;;;4954315;29;19914;-69
2022/07/04 00:07:40;;;;;;;;;;;18.90;88.90;;;;;;4952724;28;20005;-69
2022/07/04 00:10:07;;;;;;;;;;;18.90;89.30;;;;;;4953773;28;19965;-69
2022/07/04 00:12:33;;;;;;;;;;;18.90;89.60;;;;;;4953951;28;19925;-69
2022/07/04 00:15:00;;;;;;;;;;;18.90;89.90;;;;;;4953756;29;20303;-69
2022/07/04 00:17:25;;;;;;;;;;;18.80;89.80;;;;;;4953820;28;20013;-69
2022/07/04 00:19:51;;;;;;;;;;;18.80;89.90;;;;;;4953449;28;20001;-69
2022/07/04 00:22:17;;;;;;;;;;;18.80;90.00;;;;;;4953746;29;20001;-69
2022/07/04 00:24:43;;;;;;;;;;;18.80;90.10;;;;;;4953999;29;19915;-69
2022/07/04 00:27:08;;;;;;;;;;;18.70;90.20;;;;;;4953903;29;19910;-69
2022/07/04 00:29:34;;;;;;;;;;;18.70;90.50;;;;;;4953371;28;19995;-69
2022/07/04 00:32:00;;;;;;;;;;;18.70;90.60;;;;;;4953510;29;20382;-69
2022/07/04 00:34:27;;;;;;;;;;;18.70;90.70;;;;;;4953911;28;19935;-69
2022/07/04 00:36:53;;;;;;;;;;;18.70;90.80;;;;;;4953965;28;19915;-69
2022/07/04 00:39:19;;;;;;;;;;;18.70;90.90;;;;;;4957547;28;20386;-69
2022/07/04 00:41:44;;;;;;;;;;;18.60;90.90;;;;;;4957620;28;20256;-69
2022/07/04 00:44:11;;;;;;;;;;;18.60;91.00;;;;;;4957447;29;20406;-69
2022/07/04 00:46:37;;;;;;;;;;;18.60;91.10;;;;;;4957270;28;20069;-69
2022/07/04 00:49:03;;;;;;;;;;;18.60;91.20;;;;;;4957034;28;19953;-69
2022/07/04 00:51:30;;;;;;;;;;;18.60;91.30;;;;;;4957122;29;19910;-69
2022/07/04 00:53:56;;;;;;;;;;;18.60;91.30;;;;;;4957120;28;20287;-69
2022/07/04 00:56:22;;;;;;;;;;;18.60;91.40;;;;;;4956930;28;19910;-69
2022/07/04 00:58:48;;;;;;;;;;;18.60;91.50;;;;;;4956990;28;19977;-69
2022/07/04 01:01:14;;;;;;;;;;;18.50;91.90;;;;;;4955894;29;20355;-69
2022/07/04 01:03:40;;;;;;;;;;;18.50;91.60;;;;;;4956106;29;19942;-69
2022/07/04 01:06:08;;;;;;;;;;;18.50;91.80;;;;;;4957014;28;19910;-70
2022/07/04 01:08:41;;;;;;;;;;;18.50;91.90;;;;;;4957063;28;20256;-69
2022/07/04 01:11:06;;;;;;;;;;;18.40;92.00;;;;;;4956862;28;19920;-69
2022/07/04 01:13:32;;;;;;;;;;;18.30;92.10;;;;;;4957197;28;20275;-69
2022/07/04 01:15:58;;;;;;;;;;;18.20;92.20;;;;;;4955421;28;19910;-69
2022/07/04 01:18:24;;;;;;;;;;;18.20;92.40;;;;;;4956709;28;19969;-69
2022/07/04 01:20:50;;;;;;;;;;;18.10;92.50;;;;;;4956637;28;20331;-69
2022/07/04 01:23:16;;;;;;;;;;;18.10;92.60;;;;;;4956946;28;19917;-70
2022/07/04 01:25:42;;;;;;;;;;;18.10;92.70;;;;;;4956815;28;19910;-69
2022/07/04 01:28:08;;;;;;;;;;;18.00;92.80;;;;;;4956567;28;19915;-69
2022/07/04 01:30:35;;;;;;;;;;;17.90;93.00;;;;;;4956314;28;19968;-69
2022/07/04 01:33:01;;;;;;;;;;;17.90;93.00;;;;;;4956427;28;19910;-69
2022/07/04 01:35:26;;;;;;;;;;;17.90;93.10;;;;;;4956434;28;19965;-69
2022/07/04 01:37:52;;;;;;;;;;;17.90;93.30;;;;;;4956430;28;19911;-69
2022/07/04 01:40:18;;;;;;;;;;;17.90;93.20;;;;;;4956141;29;19910;-69
2022/07/04 01:42:44;;;;;;;;;;;17.80;93.30;;;;;;4956422;28;19914;-69
2022/07/04 01:45:10;;;;;;;;;;;17.70;93.50;;;;;;4956612;28;19910;-69
2022/07/04 01:47:36;;;;;;;;;;;17.60;93.50;;;;;;4956092;28;19910;-69
2022/07/04 01:50:03;;;;;;;;;;;17.50;93.60;;;;;;4956106;28;19911;-69
2022/07/04 01:52:29;;;;;;;;;;;17.50;93.70;;;;;;4956578;28;20307;-69
2022/07/04 01:54:55;;;;;;;;;;;17.50;93.90;;;;;;4956205;28;19910;-69
2022/07/04 01:57:20;;;;;;;;;;;17.40;94.00;;;;;;4956050;29;19914;-69
2022/07/04 02:02:35;;;;;;;;;;;17.40;94.30;;;;;;4956221;29;19910;-69
2022/07/04 02:05:01;;;;;;;;;;;17.30;94.40;;;;;;4956151;28;19917;-69
2022/07/04 02:07:26;;;;;;;;;;;17.30;94.50;;;;;;4956098;28;19920;-69
2022/07/04 02:09:52;;;;;;;;;;;17.20;94.60;;;;;;4955722;28;19925;-69
2022/07/04 02:15:02;;;;;;;;;;;17.20;94.90;;;;;;4954632;29;19961;-69
2022/07/04 02:17:28;;;;;;;;;;;17.10;95.00;;;;;;4956019;28;19910;-69
2022/07/04 02:19:54;;;;;;;;;;;17.10;95.10;;;;;;4954589;29;19920;-69
2022/07/04 02:22:20;;;;;;;;;;;17.00;95.10;;;;;;4955569;28;19942;-69
2022/07/04 02:24:46;;;;;;;;;;;17.00;95.30;;;;;;4956044;28;19910;-69
2022/07/04 02:27:11;;;;;;;;;;;16.90;95.30;;;;;;4955750;29;20467;-69
2022/07/04 02:29:38;;;;;;;;;;;16.80;95.50;;;;;;4955583;28;20264;-70
2022/07/04 02:32:04;;;;;;;;;;;16.80;95.60;;;;;;4955744;29;19917;-69
2022/07/04 02:34:30;;;;;;;;;;;16.70;95.70;;;;;;4955557;28;20422;-69
2022/07/04 02:36:55;;;;;;;;;;;16.70;95.80;;;;;;4955167;28;20077;-69
2022/07/04 02:39:21;;;;;;;;;;;16.80;96.00;;;;;;4955029;28;20072;-69
2022/07/04 02:41:47;;;;;;;;;;;16.70;95.90;;;;;;4955326;28;19915;-69
2022/07/04 02:44:13;;;;;;;;;;;16.70;96.10;;;;;;4955384;29;19917;-69
2022/07/04 02:46:38;;;;;;;;;;;16.70;96.10;;;;;;4955084;28;20077;-69
2022/07/04 02:49:04;;;;;;;;;;;16.60;96.10;;;;;;4955156;28;19926;-68
2022/07/04 02:51:31;;;;;;;;;;;16.60;96.20;;;;;;4955023;28;19917;-69
2022/07/04 02:53:56;;;;;;;;;;;16.50;96.30;;;;;;4955482;28;19914;-69
2022/07/04 02:56:22;;;;;;;;;;;16.60;96.50;;;;;;4955165;28;20405;-69
2022/07/04 02:58:48;;;;;;;;;;;16.50;96.70;;;;;;4954484;28;19961;-69
2022/07/04 03:01:14;;;;;;;;;;;16.50;96.90;;;;;;4954919;28;19933;-69
2022/07/04 03:03:40;;;;;;;;;;;16.50;97.00;;;;;;4955250;29;19911;-69
2022/07/04 03:06:09;;;;;;;;;;;16.40;97.20;;;;;;4954724;28;20413;-69
2022/07/04 03:08:35;;;;;;;;;;;16.40;97.40;;;;;;4954802;28;20363;-69
2022/07/04 03:11:02;;;;;;;;;;;16.40;97.50;;;;;;4954653;28;19910;-69
2022/07/04 03:13:28;;;;;;;;;;;16.40;97.40;;;;;;4954968;28;19938;-69
2022/07/04 03:15:54;;;;;;;;;;;16.40;97.30;;;;;;4954663;28;20342;-69
2022/07/04 03:18:20;;;;;;;;;;;16.40;97.30;;;;;;4954700;28;19941;-69
2022/07/04 03:20:46;;;;;;;;;;;16.40;97.30;;;;;;4954541;28;19910;-69
2022/07/04 03:23:12;;;;;;;;;;;16.30;97.40;;;;;;4954620;28;19911;-69
2022/07/04 03:25:39;;;;;;;;;;;16.40;97.50;;;;;;4954415;28;19917;-69
2022/07/04 03:28:05;;;;;;;;;;;16.30;97.60;;;;;;4954394;28;20389;-69
2022/07/04 03:30:31;;;;;;;;;;;16.30;97.70;;;;;;4954542;28;19910;-69
2022/07/04 03:32:57;;;;;;;;;;;16.30;97.70;;;;;;4954540;29;19938;-69
2022/07/04 03:35:23;;;;;;;;;;;16.30;97.80;;;;;;4954286;28;19910;-69
2022/07/04 03:37:49;;;;;;;;;;;16.30;97.80;;;;;;4954308;28;19953;-69
2022/07/04 03:40:14;;;;;;;;;;;16.20;98.00;;;;;;4953949;28;19910;-69
2022/07/04 03:42:40;;;;;;;;;;;16.20;98.00;;;;;;4954310;29;20379;-69
2022/07/04 03:45:06;;;;;;;;;;;16.30;98.10;;;;;;4954492;29;20001;-69
2022/07/04 03:47:32;;;;;;;;;;;16.20;98.20;;;;;;4954073;28;19937;-69
2022/07/04 03:49:58;;;;;;;;;;;16.20;98.10;;;;;;4953761;28;20339;-69
2022/07/04 03:52:24;;;;;;;;;;;16.20;97.90;;;;;;4954080;28;19927;-69
2022/07/04 03:54:49;;;;;;;;;;;16.30;98.10;;;;;;4954224;28;19910;-69
2022/07/04 03:57:15;;;;;;;;;;;16.20;98.10;;;;;;4954049;29;19917;-69
2022/07/04 03:59:41;;;;;;;;;;;16.20;98.20;;;;;;4953864;28;19914;-69
2022/07/04 04:02:07;;;;;;;;;;;16.20;98.30;;;;;;4953955;29;19938;-69
2022/07/04 04:07:17;;;;;;;;;;;16.20;98.40;;;;;;4954287;29;19914;-69
2022/07/04 04:09:42;;;;;;;;;;;16.20;98.40;;;;;;4952504;28;20277;-69
2022/07/04 04:12:08;;;;;;;;;;;16.30;98.60;;;;;;4953314;29;20323;-69
2022/07/04 04:14:34;;;;;;;;;;;16.20;98.50;;;;;;4953933;28;19918;-69
2022/07/04 04:17:00;;;;;;;;;;;16.20;98.70;;;;;;4953460;29;19915;-69
2022/07/04 04:19:25;;;;;;;;;;;16.20;98.70;;;;;;4953377;28;20009;-69
2022/07/04 04:21:51;;;;;;;;;;;16.20;98.80;;;;;;4953575;29;20371;-69
2022/07/04 04:24:17;;;;;;;;;;;16.20;99.00;;;;;;4953585;29;19918;-69
2022/07/04 04:26:43;;;;;;;;;;;16.20;99.00;;;;;;4953385;29;20357;-69
2022/07/04 04:29:09;;;;;;;;;;;16.20;99.20;;;;;;4952367;28;19914;-69
2022/07/04 04:31:34;;;;;;;;;;;16.10;99.30;;;;;;4953626;29;20323;-69
2022/07/04 04:34:00;;;;;;;;;;;16.20;99.50;;;;;;4953810;29;20272;-69
2022/07/04 04:36:26;;;;;;;;;;;16.20;99.50;;;;;;4967919;23;19950;-70
2022/07/04 04:38:52;;;;;;;;;;;16.30;99.50;;;;;;4953809;28;20294;-70
2022/07/04 04:41:17;;;;;;;;;;;16.30;99.50;;;;;;4953799;28;20446;-69
2022/07/04 04:43:43;;;;;;;;;;;16.30;99.60;;;;;;4953859;28;20294;-69
2022/07/04 04:46:09;;;;;;;;;;;16.30;99.50;;;;;;4953635;29;19917;-70
2022/07/04 04:48:35;;;;;;;;;;;16.40;99.90;;;;;;4953669;28;19910;-70
2022/07/04 04:51:00;;;;;;;;;;;16.50;99.50;;;;;;4953617;29;19914;-69
2022/07/04 04:53:26;;;;;;;;;;;16.50;99.50;;;;;;4953764;29;20012;-70
2022/07/04 04:55:52;;;;;;;;;;;16.60;99.70;;;;;;4953559;29;19910;-70
2022/07/04 04:58:19;;;;;;;;;;;16.60;99.60;;;;;;4953595;28;20322;-70
2022/07/04 05:00:45;;;;;;;;;;;16.60;99.70;;;;;;4953305;28;20375;-70
2022/07/04 05:03:11;;;;;;;;;;;16.70;99.80;;;;;;4953599;28;19918;-70
2022/07/04 05:05:37;;;;;;;;;;;16.70;99.80;;;;;;4953536;28;19910;-70
2022/07/04 05:08:03;;;;;;;;;;;16.70;99.90;;;;;;4953635;28;20330;-70
2022/07/04 05:10:29;;;;;;;;;;;16.80;99.80;;;;;;4953614;28;19938;-70
2022/07/04 05:12:55;;;;;;;;;;;16.90;99.80;;;;;;4953458;29;19910;-70
2022/07/04 05:15:20;;;;;;;;;;;16.90;99.80;;;;;;4953581;29;19914;-69
2022/07/04 05:17:46;;;;;;;;;;;16.90;99.80;;;;;;4953496;28;20360;-71
2022/07/04 05:20:12;;;;;;;;;;;16.90;99.90;;;;;;4953070;28;19960;-70
2022/07/04 05:22:38;;;;;;;;;;;17.00;99.90;;;;;;4954213;28;19957;-70
2022/07/04 05:25:04;;;;;;;;;;;17.10;99.90;;;;;;4957153;28;19990;-70
2022/07/04 05:27:30;;;;;;;;;;;17.20;99.90;;;;;;4955749;28;19937;-70
2022/07/04 05:29:57;;;;;;;;;;;17.20;99.90;;;;;;4956805;28;19910;-70
2022/07/04 05:32:24;;;;;;;;;;;17.30;99.90;;;;;;4956991;28;19954;-70
2022/07/04 05:34:49;;;;;;;;;;;17.30;99.90;;;;;;4956898;28;19906;-70
2022/07/04 05:37:15;;;;;;;;;;;17.40;99.90;;;;;;4956861;28;19915;-70
2022/07/04 05:39:41;;;;;;;;;;;17.50;99.90;;;;;;4956562;28;20422;-70
2022/07/04 05:42:07;;;;;;;;;;;17.60;99.80;;;;;;4956397;28;20001;-70
2022/07/04 05:44:33;;;;;;;;;;;17.60;99.70;;;;;;4956414;28;19980;-70
2022/07/04 05:46:58;;;;;;;;;;;17.70;99.40;;;;;;4956486;28;19911;-70
2022/07/04 05:49:24;;;;;;;;;;;17.70;99.40;;;;;;4956265;28;20376;-70
2022/07/04 05:51:50;;;;;;;;;;;17.70;99.50;;;;;;4956340;28;19921;-69
2022/07/04 05:54:16;;;;;;;;;;;17.80;99.20;;;;;;4956334;28;19917;-69
2022/07/04 05:56:42;;;;;;;;;;;17.80;99.10;;;;;;4956166;28;20299;-70
2022/07/04 05:59:09;;;;;;;;;;;17.90;99.00;;;;;;4955920;28;19918;-71
2022/07/04 06:01:36;;;;;;;;;;;17.90;99.10;;;;;;4956083;28;19999;-71
2022/07/04 06:04:02;;;;;;;;;;;18.00;99.00;;;;;;4956044;28;19910;-73
2022/07/04 06:06:28;;;;;;;;;;;18.00;98.80;;;;;;4954937;29;19910;-70
2022/07/04 06:08:54;;;;;;;;;;;18.00;98.60;;;;;;4955953;28;19911;-71
2022/07/04 06:11:19;;;;;;;;;;;18.10;98.50;;;;;;4956095;28;19949;-70
2022/07/04 06:13:45;;;;;;;;;;;18.00;98.40;;;;;;4956093;29;20001;-70
2022/07/04 06:16:11;;;;;;;;;;;18.10;98.40;;;;;;4956358;28;19962;-69
2022/07/04 06:18:37;;;;;;;;;;;18.10;98.30;;;;;;4956010;28;19914;-68
2022/07/04 06:21:02;;;;;;;;;;;18.20;98.40;;;;;;4955868;28;19910;-72
2022/07/04 06:23:28;;;;;;;;;;;18.20;98.40;;;;;;4955633;29;20009;-69
2022/07/04 06:25:54;;;;;;;;;;;18.20;98.50;;;;;;4955407;28;20291;-69
2022/07/04 06:28:20;;;;;;;;;;;18.20;98.10;;;;;;4955385;28;19961;-69
2022/07/04 06:30:45;;;;;;;;;;;18.20;98.00;;;;;;4955529;29;20331;-69
2022/07/04 06:33:11;;;;;;;;;;;18.30;97.90;;;;;;4955452;28;19958;-69
2022/07/04 06:35:46;;;;;;;;;;;18.30;97.50;;;;;;4954520;28;20290;-71
2022/07/04 06:38:12;;;;;;;;;;;18.30;97.20;;;;;;4954976;28;19942;-69
2022/07/04 06:40:39;;;;;;;;;;;18.30;97.10;;;;;;4955007;29;19910;-69
2022/07/04 06:43:05;;;;;;;;;;;18.30;97.10;;;;;;4955169;28;19938;-69
2022/07/04 06:45:31;;;;;;;;;;;18.40;97.10;;;;;;4955017;28;19914;-70
2022/07/04 06:47:56;;;;;;;;;;;18.30;96.60;;;;;;4954740;28;19958;-70
2022/07/04 06:50:22;;;;;;;;;;;18.40;96.40;;;;;;4953516;29;19948;-70
2022/07/04 06:52:48;;;;;;;;;;;18.40;96.40;;;;;;4954796;28;19917;-70
2022/07/04 06:55:14;;;;;;;;;;;18.40;96.20;;;;;;4953436;29;19910;-70
2022/07/04 06:57:40;;;;;;;;;;;18.50;96.00;;;;;;4954560;28;19933;-70
2022/07/04 07:00:07;;;;;;;;;;;18.50;95.40;;;;;;4954171;29;19915;-70
2022/07/04 07:02:36;;;;;;;;;;;18.60;95.00;;;;;;4954590;28;19933;-70
2022/07/04 07:05:02;;;;;;;;;;;18.60;95.10;;;;;;4954683;28;19918;-70
2022/07/04 07:07:28;;;;;;;;;;;18.60;95.20;;;;;;4954612;28;19933;-70
2022/07/04 07:09:54;;;;;;;;;;;18.70;94.30;;;;;;4953213;29;20379;-70
2022/07/04 07:12:20;;;;;;;;;;;18.70;94.30;;;;;;4954377;28;20394;-70
2022/07/04 07:14:46;;;;;;;;;;;18.70;94.50;;;;;;4954423;28;20375;-70
2022/07/04 07:17:12;;;;;;;;;;;18.70;94.00;;;;;;4954204;28;19957;-70
2022/07/04 07:19:38;;;;;;;;;;;18.80;93.70;;;;;;4953939;28;20361;-70
2022/07/04 07:22:04;;;;;;;;;;;18.80;93.20;;;;;;4954774;28;19910;-70
2022/07/04 07:24:30;;;;;;;;;;;18.80;93.40;;;;;;4954152;28;20288;-70
2022/07/04 07:26:56;;;;;;;;;;;18.80;92.90;;;;;;4954043;28;19921;-70
2022/07/04 07:29:22;;;;;;;;;;;18.80;92.90;;;;;;4953979;28;19910;-70
2022/07/04 07:31:48;;;;;;;;;;;18.90;92.80;;;;;;4953993;29;20339;-70
2022/07/04 07:34:14;;;;;;;;;;;18.90;92.70;;;;;;4954017;29;19914;-70
2022/07/04 07:36:40;;;;;;;;;;;19.00;92.80;;;;;;4953894;28;19918;-70
2022/07/04 07:39:06;;;;;;;;;;;19.00;92.10;;;;;;4953759;28;19918;-70
2022/07/04 07:41:32;;;;;;;;;;;19.10;91.80;;;;;;4952598;28;19961;-70
2022/07/04 07:43:57;;;;;;;;;;;19.10;91.80;;;;;;4953849;29;20028;-70
2022/07/04 07:46:23;;;;;;;;;;;19.10;91.70;;;;;;4953546;28;19911;-70
2022/07/04 07:48:49;;;;;;;;;;;19.10;92.30;;;;;;4953781;28;20131;-70
2022/07/04 07:51:16;;;;;;;;;;;19.20;92.60;;;;;;4954186;29;19956;-70
2022/07/04 07:53:42;;;;;;;;;;;19.20;92.70;;;;;;4952392;29;19977;-70
2022/07/04 07:56:08;;;;;;;;;;;19.20;91.90;;;;;;4953698;28;19917;-70
2022/07/04 07:58:34;;;;;;;;;;;19.20;91.50;;;;;;4953308;28;20291;-70
2022/07/04 08:01:01;;;;;;;;;;;19.20;91.40;;;;;;4952245;28;20001;-70
2022/07/04 08:06:12;;;;;;;;;;;19.30;90.90;;;;;;4953418;29;19926;-70
2022/07/04 08:08:39;;;;;;;;;;;19.40;89.30;;;;;;4953643;28;19937;-70
2022/07/04 08:11:04;;;;;;;;;;;19.40;89.50;;;;;;4953467;28;19910;-70
2022/07/04 08:13:30;;;;;;;;;;;19.40;90.30;;;;;;4953480;28;20298;-70
2022/07/04 08:15:56;;;;;;;;;;;19.40;90.70;;;;;;4952003;28;20435;-70
2022/07/04 08:18:22;;;;;;;;;;;19.40;90.80;;;;;;4953118;28;19921;-70
2022/07/04 08:20:49;;;;;;;;;;;19.50;90.90;;;;;;4953226;29;19940;-71
2022/07/04 08:23:15;;;;;;;;;;;19.50;90.80;;;;;;4953551;28;19938;-69
2022/07/04 08:25:41;;;;;;;;;;;19.50;90.40;;;;;;4953409;28;19938;-70
2022/07/04 08:28:07;;;;;;;;;;;19.40;89.50;;;;;;4953201;28;19911;-71
2022/07/04 08:30:32;;;;;;;;;;;19.50;90.30;;;;;;4953391;28;19910;-69
2022/07/04 08:32:58;;;;;;;;;;;19.50;90.20;;;;;;4953395;29;19916;-69
2022/07/04 08:35:24;;;;;;;;;;;19.50;90.00;;;;;;4953261;29;19917;-71
2022/07/04 08:37:53;;;;;;;;;;;19.50;90.00;;;;;;4953151;28;19914;-70
2022/07/04 08:40:22;;;;;;;;;;;19.50;88.40;;;;;;4953061;29;19987;-69
2022/07/04 08:42:49;;;;;;;;;;;19.50;89.10;;;;;;4952109;28;19910;-69
2022/07/04 08:45:15;;;;;;;;;;;19.60;89.70;;;;;;4953193;29;19910;-69
2022/07/04 08:47:42;;;;;;;;;;;19.60;89.30;;;;;;4952799;28;19911;-70
2022/07/04 08:50:10;;;;;;;;;;;19.70;88.80;;;;;;4953024;28;19964;-69
2022/07/04 08:52:37;;;;;;;;;;;19.70;88.90;;;;;;4953069;29;20391;-70
2022/07/04 09:00:32;;;;;;;;;;;19.80;86.90;;;;;;4956930;29;20058;-71
2022/07/04 09:03:00;;;;;;;;;;;19.90;87.60;;;;;;4956770;28;20271;-71
2022/07/04 09:05:26;;;;;;;;;;;19.90;85.80;;;;;;4956882;28;19911;-71
2022/07/04 09:07:53;;;;;;;;;;;20.00;85.30;;;;;;4956514;28;19918;-71
2022/07/04 09:10:20;;;;;;;;;;;20.00;85.00;;;;;;4955425;28;19969;-69
2022/07/04 09:12:46;;;;;;;;;;;20.10;83.30;;;;;;4956515;29;20264;-69
2022/07/04 09:15:12;;;;;;;;;;;20.20;83.40;;;;;;4956698;28;19917;-69
2022/07/04 09:17:38;;;;;;;;;;;20.20;84.30;;;;;;4956826;28;19910;-71
2022/07/04 09:20:13;;;;;;;;;;;20.20;83.50;;;;;;4956347;28;20005;-70
2022/07/04 09:22:38;;;;;;;;;;;20.20;83.20;;;;;;4956460;28;19940;-71
2022/07/04 09:25:08;;;;;;;;;;;20.20;83.30;;;;;;4956401;29;19910;-70
2022/07/04 09:27:34;;;;;;;;;;;20.20;83.80;;;;;;4956218;28;20360;-70
2022/07/04 09:30:00;;;;;;;;;;;20.20;84.10;;;;;;4954921;29;20021;-69
2022/07/04 09:32:35;;;;;;;;;;;20.20;85.00;;;;;;4956275;28;19913;-69
2022/07/04 09:35:02;;;;;;;;;;;20.20;84.10;;;;;;4956223;28;20346;-70
2022/07/04 09:37:36;;;;;;;;;;;20.20;84.50;;;;;;4956091;28;20203;-70
2022/07/04 09:40:04;;;;;;;;;;;20.30;84.40;;;;;;4955919;28;20290;-70
2022/07/04 09:42:36;;;;;;;;;;;20.30;83.80;;;;;;4956196;28;19911;-70
2022/07/04 09:45:10;;;;;;;;;;;20.30;84.10;;;;;;4956047;28;19916;-70
2022/07/04 09:47:36;;;;;;;;;;;20.40;84.10;;;;;;4955880;28;19918;-70
2022/07/04 09:50:02;;;;;;;;;;;20.40;84.00;;;;;;4955836;28;19917;-70
2022/07/04 09:52:29;;;;;;;;;;;20.40;84.20;;;;;;4956056;28;20287;-70
2022/07/04 09:55:05;;;;;;;;;;;20.40;84.30;;;;;;4955637;28;19917;-70
2022/07/04 09:57:32;;;;;;;;;;;20.60;83.50;;;;;;4955582;28;19910;-69
2022/07/04 10:00:16;;;;;;;;;;;20.60;81.90;;;;;;4955223;28;20409;-70
2022/07/04 10:02:42;;;;;;;;;;;20.60;81.40;;;;;;4955595;29;19911;-70
2022/07/04 10:05:08;;;;;;;;;;;20.70;79.40;;;;;;4955956;28;19906;-69
2022/07/04 10:07:43;;;;;;;;;;;20.70;79.20;;;;;;4956013;28;19910;-70
2022/07/04 10:10:24;;;;;;;;;;;20.70;79.20;;;;;;4953163;28;19929;-70
2022/07/04 10:12:50;;;;;;;;;;;20.80;79.90;;;;;;4955671;29;19910;-70
2022/07/04 10:15:16;;;;;;;;;;;20.80;80.30;;;;;;4955321;28;20360;-70
2022/07/04 10:17:42;;;;;;;;;;;20.70;81.40;;;;;;4953925;28;19917;-69
2022/07/04 10:20:09;;;;;;;;;;;20.80;81.00;;;;;;4955070;29;20267;-70
2022/07/04 10:22:36;;;;;;;;;;;20.80;81.20;;;;;;4955570;28;19917;-70
2022/07/04 10:25:01;;;;;;;;;;;20.80;79.60;;;;;;4955260;29;19953;-70
2022/07/04 10:27:27;;;;;;;;;;;20.80;78.50;;;;;;4955241;29;19956;-70
2022/07/04 10:29:57;;;;;;;;;;;20.90;78.70;;;;;;4954994;28;20430;-70
2022/07/04 10:32:23;;;;;;;;;;;21.00;79.30;;;;;;4955257;28;20442;-71
2022/07/04 10:34:49;;;;;;;;;;;21.10;79.60;;;;;;4955255;28;19914;-70
2022/07/04 10:37:16;;;;;;;;;;;21.10;79.30;;;;;;4969344;23;19926;-71
2022/07/04 10:39:41;;;;;;;;;;;21.10;78.90;;;;;;4954751;28;20006;-70
2022/07/04 10:42:07;;;;;;;;;;;21.10;77.80;;;;;;4954809;29;20384;-71
2022/07/04 10:44:37;;;;;;;;;;;21.10;77.50;;;;;;4954967;28;19914;-70
2022/07/04 10:47:05;;;;;;;;;;;21.10;77.90;;;;;;4954786;28;19969;-70
2022/07/04 10:49:31;;;;;;;;;;;21.10;78.30;;;;;;4954409;28;19997;-71
2022/07/04 10:52:06;;;;;;;;;;;21.10;79.40;;;;;;4954995;28;20422;-70
2022/07/04 10:54:37;;;;;;;;;;;21.20;78.80;;;;;;4954670;29;19910;-70
2022/07/04 10:57:09;;;;;;;;;;;21.30;79.30;;;;;;4954451;28;19940;-70
2022/07/04 10:59:35;;;;;;;;;;;21.40;78.00;;;;;;4954579;28;19921;-70
2022/07/04 11:02:03;;;;;;;;;;;21.50;74.20;;;;;;4954658;28;20307;-69
2022/07/04 11:04:55;;;;;;;;;;;21.50;75.00;;;;;;4954504;29;19997;-70
2022/07/04 11:07:23;;;;;;;;;;;21.50;76.10;;;;;;4951761;29;19917;-67
2022/07/04 11:10:07;;;;;;;;;;;21.60;76.50;;;;;;4954225;28;19911;-67
2022/07/04 11:12:50;;;;;;;;;;;21.60;76.60;;;;;;4953278;29;19969;-67
2022/07/04 11:15:17;;;;;;;;;;;21.70;75.80;;;;;;4954254;29;20421;-68
2022/07/04 11:17:43;;;;;;;;;;;21.70;75.90;;;;;;4954129;28;20282;-68
2022/07/04 11:20:10;;;;;;;;;;;21.70;75.50;;;;;;4953601;28;19918;-68
2022/07/04 11:22:36;;;;;;;;;;;21.70;74.20;;;;;;4954280;28;20283;-68
2022/07/04 11:25:02;;;;;;;;;;;21.80;74.80;;;;;;4954162;29;19911;-68
2022/07/04 11:27:28;;;;;;;;;;;21.80;75.40;;;;;;4954153;28;20394;-68
2022/07/04 11:29:54;;;;;;;;;;;21.90;75.10;;;;;;4953886;28;19921;-68
2022/07/04 11:32:21;;;;;;;;;;;22.00;75.10;;;;;;4952658;29;19915;-68
2022/07/04 11:34:48;;;;;;;;;;;22.10;75.60;;;;;;4954088;28;19910;-68
2022/07/04 11:37:15;;;;;;;;;;;22.10;75.00;;;;;;4953605;28;19914;-68
2022/07/04 11:39:40;;;;;;;;;;;22.00;75.30;;;;;;4953535;28;19937;-69
2022/07/04 11:45:08;;;;;;;;;;;22.10;74.50;;;;;;4953762;29;20009;-68
2022/07/04 11:47:38;;;;;;;;;;;22.10;75.00;;;;;;4936374;28;19965;-68
2022/07/04 11:50:05;;;;;;;;;;;22.20;75.90;;;;;;4953695;28;20295;-68
2022/07/04 11:52:39;;;;;;;;;;;22.10;75.20;;;;;;4953699;28;20278;-68
2022/07/04 11:55:06;;;;;;;;;;;22.30;73.50;;;;;;4953624;28;19910;-68
2022/07/04 11:57:39;;;;;;;;;;;22.40;72.10;;;;;;4953342;28;19918;-68
2022/07/04 12:00:08;;;;;;;;;;;22.40;71.90;;;;;;4953188;28;19965;-69
2022/07/04 12:02:34;;;;;;;;;;;22.40;71.70;;;;;;4952223;28;19969;-68
2022/07/04 12:05:02;;;;;;;;;;;22.50;72.00;;;;;;4953915;29;19911;-68
2022/07/04 12:07:28;;;;;;;;;;;22.60;71.30;;;;;;4953293;28;19965;-68
2022/07/04 12:09:54;;;;;;;;;;;22.60;70.10;;;;;;4953248;28;19918;-69
2022/07/04 12:12:21;;;;;;;;;;;22.50;71.10;;;;;;4953365;28;19923;-68
2022/07/04 12:15:07;;;;;;;;;;;22.50;70.90;;;;;;4953246;29;19918;-68
2022/07/04 12:17:37;;;;;;;;;;;22.50;71.70;;;;;;4951897;28;20009;-68
2022/07/04 12:20:10;;;;;;;;;;;22.60;71.70;;;;;;4953121;28;19915;-68
2022/07/04 12:22:40;;;;;;;;;;;22.60;71.70;;;;;;4953865;28;20287;-68
2022/07/04 12:25:07;;;;;;;;;;;22.70;71.10;;;;;;4953315;29;20014;-69
2022/07/04 12:27:34;;;;;;;;;;;22.70;71.20;;;;;;4953099;28;20002;-69
2022/07/04 12:30:00;;;;;;;;;;;22.80;70.80;;;;;;4953154;28;19911;-68
2022/07/04 12:32:45;;;;;;;;;;;23.00;70.40;;;;;;4954075;28;20188;-68
2022/07/04 12:35:30;;;;;;;;;;;23.10;69.20;;;;;;4957283;29;19965;-68
2022/07/04 12:38:03;;;;;;;;;;;23.20;69.40;;;;;;4956974;28;19918;-68
2022/07/04 12:40:29;;;;;;;;;;;23.20;68.80;;;;;;4957205;28;20406;-68
2022/07/04 12:42:56;;;;;;;;;;;23.10;69.70;;;;;;4957097;28;20006;-68
2022/07/04 12:45:22;;;;;;;;;;;23.00;69.90;;;;;;4956925;28;19989;-68
2022/07/04 12:47:48;;;;;;;;;;;22.90;70.10;;;;;;4956693;28;20328;-69
2022/07/04 12:50:14;;;;;;;;;;;22.80;70.30;;;;;;4956748;28;19964;-69
2022/07/04 12:52:42;;;;;;;;;;;22.70;71.20;;;;;;4956850;28;19910;-68
2022/07/04 12:55:11;;;;;;;;;;;22.70;71.10;;;;;;4957222;28;19997;-68
2022/07/04 12:57:37;;;;;;;;;;;22.80;71.60;;;;;;4956644;28;19917;-68
2022/07/04 13:00:03;;;;;;;;;;;22.70;71.50;;;;;;4956528;29;20261;-68
2022/07/04 13:02:29;;;;;;;;;;;22.70;71.20;;;;;;4956820;28;20431;-68
2022/07/04 13:04:56;;;;;;;;;;;22.70;71.90;;;;;;4956773;29;20005;-68
2022/07/04 13:07:22;;;;;;;;;;;22.70;71.70;;;;;;4956517;28;20009;-68
2022/07/04 13:09:47;;;;;;;;;;;22.70;72.40;;;;;;4956356;28;20042;-68
2022/07/04 13:12:27;;;;;;;;;;;22.70;72.20;;;;;;4956495;29;20425;-69
2022/07/04 13:14:53;;;;;;;;;;;22.70;72.80;;;;;;4956477;28;20384;-68
2022/07/04 13:17:19;;;;;;;;;;;22.70;72.40;;;;;;4956383;28;19945;-69
2022/07/04 13:19:45;;;;;;;;;;;22.70;72.60;;;;;;4956021;28;19910;-68
2022/07/04 13:22:11;;;;;;;;;;;22.70;72.10;;;;;;4956383;29;19917;-68
2022/07/04 13:24:36;;;;;;;;;;;22.80;71.00;;;;;;4956270;28;19918;-68
2022/07/04 13:27:02;;;;;;;;;;;22.70;71.20;;;;;;4956079;28;19910;-68
2022/07/04 13:29:28;;;;;;;;;;;22.60;71.40;;;;;;4955962;28;19910;-68
2022/07/04 13:31:54;;;;;;;;;;;22.60;71.70;;;;;;4956181;29;20328;-68
2022/07/04 13:34:20;;;;;;;;;;;22.60;72.30;;;;;;4956210;29;19977;-68
2022/07/04 13:36:46;;;;;;;;;;;22.60;72.40;;;;;;4955876;28;19965;-68
2022/07/04 13:39:12;;;;;;;;;;;22.70;72.80;;;;;;4955721;28;19918;-68
2022/07/04 13:41:37;;;;;;;;;;;22.70;70.90;;;;;;4956086;28;19949;-68
2022/07/04 13:44:05;;;;;;;;;;;22.90;71.90;;;;;;4955506;28;20336;-68
2022/07/04 13:46:34;;;;;;;;;;;23.00;72.20;;;;;;4955710;28;19922;-68
2022/07/04 13:49:04;;;;;;;;;;;23.00;72.20;;;;;;4955957;28;19910;-68
2022/07/04 13:51:30;;;;;;;;;;;23.00;71.20;;;;;;4955877;28;19911;-68
2022/07/04 13:53:55;;;;;;;;;;;23.00;71.00;;;;;;4955762;28;19910;-68
2022/07/04 13:56:22;;;;;;;;;;;23.00;71.50;;;;;;4955661;28;19914;-68
2022/07/04 13:58:48;;;;;;;;;;;22.90;71.20;;;;;;4955473;28;19914;-68
2022/07/04 14:01:19;;;;;;;;;;;22.90;71.30;;;;;;4955726;28;19911;-68
2022/07/04 14:03:45;;;;;;;;;;;23.10;71.20;;;;;;4955594;28;19921;-68
2022/07/04 14:06:11;;;;;;;;;;;23.20;70.80;;;;;;4955641;28;20065;-68
2022/07/04 14:08:37;;;;;;;;;;;23.30;70.80;;;;;;4955313;28;19933;-69
2022/07/04 14:11:03;;;;;;;;;;;23.30;69.90;;;;;;4955515;28;19910;-68
2022/07/04 14:13:29;;;;;;;;;;;23.30;70.00;;;;;;4955496;28;19922;-68
2022/07/04 14:15:54;;;;;;;;;;;23.40;70.20;;;;;;4955258;28;19910;-68
2022/07/04 14:18:20;;;;;;;;;;;23.70;69.50;;;;;;4955221;28;19906;-68
2022/07/04 14:20:46;;;;;;;;;;;24.00;68.40;;;;;;4955291;28;19911;-68
2022/07/04 14:23:12;;;;;;;;;;;24.20;68.10;;;;;;4955168;28;19910;-68
2022/07/04 14:25:38;;;;;;;;;;;24.60;66.40;;;;;;4955127;28;19930;-68
2022/07/04 14:28:04;;;;;;;;;;;25.40;64.40;;;;;;4955253;28;19968;-68
2022/07/04 14:30:30;;;;;;;;;;;26.30;63.20;;;;;;4955028;28;19973;-69
2022/07/04 14:32:55;;;;;;;;;;;26.90;61.30;;;;;;4955206;29;20357;-68